Marina — WDF5745 — position and weather

sailwx.info

Track history (hours):
 
Tides and Currents Weather Stations Pressure Air Temp Water Temp Dewpoint Dewpoint Depression Visibility Wind Speed Wind Dir Waves Ship Positions

Marina

Owner: Brown, Michael R, Langley, WA. More information available from US FCC via Universal Licensing System and Coast Guard Vessel Documentation Center.

Last reported at 2018-Feb-11 23:22 UTC. Time now 2018-May-22 19:52 UTC.
Position N 32°40' W 117°19'.
Warning: this ship's position is months out of date.

Length 30 m; draft 2.7 m.

Type: Fishing. MMSI: 367466760.

Date/timePositionNaut miles runAvg speedWind from/ knotsBaromVisibWave heightAir tempDewpointWater temp
2018-Feb-11 23:22N 32°40' W 117°19'2 4.1
2018-Feb-11 22:49N 32°42' W 117°18'0 1.4
2018-Feb-11 22:29N 32°43' W 117°18'3 5.4
2018-Feb-11 22:00N 32°45' W 117°19'3 5.9
2018-Feb-11 21:30N 32°46' W 117°23'4 8.2
2018-Feb-11 21:00N 32°48' W 117°27'4 8.5
2018-Feb-11 20:30N 32°49' W 117°32'4 8.6
2018-Feb-11 20:00N 32°51' W 117°37'4 8.9
2018-Feb-11 19:30N 32°52' W 117°42'61 7.9
2018-Feb-11 11:50N 33°26' W 118°42'4 8.0
2018-Feb-11 11:22N 33°29' W 118°44'3 7.9
2018-Feb-11 11:00N 33°32' W 118°47'4 8.0
2018-Feb-11 10:30N 33°35' W 118°50'4 8.1
2018-Feb-11 10:00N 33°38' W 118°53'4 8.3
2018-Feb-11 09:30N 33°41' W 118°56'4 8.2
2018-Feb-11 09:00N 33°44' W 118°59'4 8.1
2018-Feb-11 08:30N 33°47' W 119°02'4 8.3
2018-Feb-11 08:00N 33°50' W 119°06'4 8.4
2018-Feb-11 07:29N 33°54' W 119°09'4 8.3
2018-Feb-11 07:00N 33°57' W 119°12'4 8.0
2018-Feb-11 06:28N 33°60' W 119°15'4 7.5
2018-Feb-11 05:57N 34°03' W 119°19'3 7.9
2018-Feb-11 05:30N 34°04' W 119°23'5 7.8
2018-Feb-11 04:55N 34°06' W 119°28'3 8.1
2018-Feb-11 04:29N 34°08' W 119°31'4 8.1
2018-Feb-11 03:59N 34°10' W 119°35'5 8.2
2018-Feb-11 03:20N 34°12' W 119°42'3 7.9
2018-Feb-11 03:00N 34°12' W 119°45'4 7.8
2018-Feb-11 02:30N 34°14' W 119°49'5 7.8
2018-Feb-11 01:56N 34°15' W 119°54'3 8.1
2018-Feb-11 01:30N 34°16' W 119°58'4 8.2
2018-Feb-11 00:58N 34°17' W 120°04'4 8.3
2018-Feb-11 00:25N 34°18' W 120°09'4 8.4
2018-Feb-11 00:00N 34°19' W 120°13'4 8.4
2018-Feb-10 23:29N 34°20' W 120°18'4 8.3
2018-Feb-10 22:59N 34°22' W 120°23'4 8.2
2018-Feb-10 22:30N 34°23' W 120°27'4 8.2
2018-Feb-10 22:00N 34°24' W 120°32'4 8.2
2018-Feb-10 21:30N 34°26' W 120°36'4 8.3
2018-Feb-10 21:00N 34°27' W 120°41'4 7.7
2018-Feb-10 20:30N 34°29' W 120°45'4 7.6
2018-Feb-10 20:00N 34°32' W 120°48'4 7.5
2018-Feb-10 19:30N 34°35' W 120°51'4 7.7
2018-Feb-10 19:00N 34°38' W 120°55'4 7.8
2018-Feb-10 18:30N 34°40' W 120°58'4 8.1
2018-Feb-10 18:00N 34°43' W 121°01'4 8.3
2018-Feb-10 17:30N 34°47' W 121°04'4 8.3
2018-Feb-10 17:00N 34°50' W 121°08'4 8.2
2018-Feb-10 16:30N 34°53' W 121°11'4 8.3
2018-Feb-10 16:00N 34°57' W 121°13'4 8.2
2018-Feb-10 15:30N 35°00' W 121°16'4 8.1
2018-Feb-10 15:00N 35°04' W 121°18'4 8.0
2018-Feb-10 14:30N 35°07' W 121°21'4 8.0
2018-Feb-10 14:00N 35°10' W 121°23'4 8.3
2018-Feb-10 13:30N 35°14' W 121°26'4 8.5
2018-Feb-10 13:00N 35°18' W 121°29'4 8.5
2018-Feb-10 12:30N 35°21' W 121°31'4 8.6
2018-Feb-10 12:00N 35°25' W 121°34'6 8.7
2018-Feb-10 11:19N 35°30' W 121°38'70 8.6
2018-Feb-10 03:07N 36°30' W 122°22'1 8.4
2018-Feb-10 02:59N 36°32' W 122°23'7 8.5
2018-Feb-10 02:07N 36°38' W 122°28'2 8.5
2018-Feb-10 01:53N 36°40' W 122°29'4 8.5
2018-Feb-10 01:25N 36°43' W 122°31'4 8.8
2018-Feb-10 01:00N 36°46' W 122°34'5 8.9
2018-Feb-10 00:26N 36°50' W 122°37'4 8.7
2018-Feb-09 23:58N 36°54' W 122°40'4 8.7
2018-Feb-09 23:30N 36°57' W 122°42'4 8.5
2018-Feb-09 23:01N 37°01' W 122°45'2 8.4
2018-Feb-09 22:46N 37°03' W 122°46'6 8.4
2018-Feb-09 22:00N 37°08' W 122°50'4 8.7
2018-Feb-09 21:30N 37°12' W 122°53'13 8.8
2018-Feb-09 20:01N 37°23' W 123°02'9 8.9
2018-Feb-09 19:01N 37°31' W 123°07'39 8.6
2018-Feb-09 14:31N 38°06' W 123°29'329 8.5
2018-Feb-07 23:59N 43°30' W 124°42'10 8.9
2018-Feb-07 22:52N 43°39' W 124°40'8 8.8
2018-Feb-07 21:56N 43°47' W 124°38'  
2018-Feb-05 06:58N 44°55' W 124°25'27 8.5
2018-Feb-05 03:47N 45°22' W 124°33'2 8.4
2018-Feb-05 03:30N 45°24' W 124°34'4 8.5
2018-Feb-05 03:01N 45°28' W 124°35'4 8.6
2018-Feb-05 02:30N 45°32' W 124°36'4 8.7
2018-Feb-05 02:01N 45°36' W 124°38'4 8.5
2018-Feb-05 01:30N 45°41' W 124°39'4 8.6
2018-Feb-05 01:00N 45°45' W 124°40'4 8.6
2018-Feb-05 00:30N 45°49' W 124°42'4 8.6
2018-Feb-05 00:00N 45°53' W 124°43'4 8.5
2018-Feb-04 23:30N 45°57' W 124°44'4 8.5
2018-Feb-04 23:00N 46°02' W 124°45'4 8.2
2018-Feb-04 22:30N 46°06' W 124°47'10 8.0
2018-Feb-04 21:15N 46°15' W 124°50'2 7.8
2018-Feb-04 21:01N 46°17' W 124°50'8 7.8
2018-Feb-04 19:56N 46°25' W 124°53'3 7.8
2018-Feb-04 19:31N 46°29' W 124°54'4 7.7
2018-Feb-04 19:00N 46°33' W 124°55'4 7.7
2018-Feb-04 18:31N 46°36' W 124°56'4 7.7
2018-Feb-04 18:00N 46°40' W 124°57'4 7.6
2018-Feb-04 17:30N 46°44' W 124°59'92 7.7
2018-Feb-04 05:30N 48°16' W 124°58'4 6.8
2018-Feb-04 04:53N 48°19' W 124°55'3 6.4
2018-Feb-04 04:21N 48°23' W 124°53'3 7.1
2018-Feb-04 04:00N 48°24' W 124°51'4 7.5
2018-Feb-04 03:30N 48°26' W 124°46'4 7.6
2018-Feb-04 03:00N 48°25' W 124°40'4 7.7
2018-Feb-04 02:30N 48°24' W 124°34'4 8.1
2018-Feb-04 01:59N 48°22' W 124°29'4 8.0
2018-Feb-04 01:30N 48°20' W 124°24'4 7.9
2018-Feb-04 01:00N 48°18' W 124°19'4 7.9
2018-Feb-04 00:30N 48°17' W 124°13'4 7.8
2018-Feb-03 23:59N 48°15' W 124°08'6 7.4
2018-Feb-03 23:13N 48°13' W 123°60'40 8.5
2018-Feb-03 18:28N 48°20' W 122°60'4 8.9
2018-Feb-03 18:00N 48°22' W 122°54'5 9.4
2018-Feb-03 17:31N 48°24' W 122°48'5 9.5
2018-Feb-03 17:01N 48°29' W 122°45'5 3.8
2018-Feb-03 15:49N 48°31' W 122°39'0 0.1
2018-Feb-03 15:23N 48°31' W 122°39'0 0.0
2018-Feb-03 14:59N 48°31' W 122°39'0 0.0
2018-Feb-03 14:28N 48°31' W 122°39'0 0.0
2018-Feb-03 13:49N 48°31' W 122°39'0 0.0
2018-Feb-03 13:08N 48°31' W 122°39'0 0.0
2018-Feb-03 13:00N 48°31' W 122°39'0 0.0
2018-Feb-03 11:08N 48°31' W 122°39'0 0.0
2018-Feb-03 10:58N 48°31' W 122°39'0 0.0
2018-Feb-03 10:28N 48°31' W 122°39'0 0.0
2018-Feb-03 10:00N 48°31' W 122°39'0 0.0
2018-Feb-03 06:27N 48°31' W 122°39'0 0.0
2018-Feb-03 05:22N 48°31' W 122°39'0 0.0
2018-Feb-03 04:50N 48°31' W 122°39'0 0.0
2018-Feb-03 03:58N 48°31' W 122°39'0 0.0
2018-Feb-03 03:25N 48°31' W 122°39'0 0.0
2018-Feb-03 01:58N 48°31' W 122°39'0 0.0
2018-Feb-03 01:30N 48°31' W 122°39'0 0.0
2018-Feb-03 01:00N 48°31' W 122°39'0 0.0
2018-Feb-03 00:20N 48°31' W 122°39'0 0.0
2018-Feb-02 23:55N 48°31' W 122°39'0 0.0
2018-Feb-02 23:23N 48°31' W 122°39'0 0.0
2018-Feb-02 22:59N 48°31' W 122°39'0 0.0
2018-Feb-02 22:28N 48°31' W 122°39'0 0.0
2018-Feb-02 21:58N 48°31' W 122°39'0 0.0
2018-Feb-02 21:30N 48°31' W 122°39'0 0.0
2018-Feb-02 20:59N 48°31' W 122°39'0 0.0
2018-Feb-02 20:28N 48°31' W 122°39'0 0.0
2018-Feb-02 18:34N 48°31' W 122°39'0 0.0
2018-Feb-02 18:29N 48°31' W 122°39'0 0.0
2018-Feb-02 17:47N 48°31' W 122°39'0 0.0
2018-Feb-02 17:22N 48°31' W 122°39'0 0.0
2018-Feb-02 16:43N 48°31' W 122°39'0 0.0
2018-Feb-02 16:21N 48°31' W 122°39'0 0.0
2018-Feb-02 12:40N 48°31' W 122°39'0 0.0
2018-Feb-02 11:50N 48°31' W 122°39'0 0.0
2018-Feb-02 11:24N 48°31' W 122°39'0 0.0
2018-Feb-02 10:59N 48°31' W 122°39'0 0.0
2018-Feb-02 10:30N 48°31' W 122°39'0 0.0
2018-Feb-02 09:54N 48°31' W 122°39'0 0.0
2018-Feb-02 09:30N 48°31' W 122°39'0 0.0
2018-Feb-02 08:58N 48°31' W 122°39'0 0.0
2018-Feb-02 07:41N 48°31' W 122°39'0 0.0
2018-Feb-02 07:15N 48°31' W 122°39'0 0.0
2018-Feb-02 06:59N 48°31' W 122°39'0 0.0
2018-Feb-02 06:30N 48°31' W 122°39'0 0.0
2018-Feb-02 05:55N 48°31' W 122°39'0 0.0
2018-Feb-02 05:14N 48°31' W 122°39'0 0.0
2018-Feb-02 04:53N 48°31' W 122°39'0 0.0
2018-Feb-02 04:20N 48°31' W 122°39'0 0.0
2018-Feb-02 03:48N 48°31' W 122°39'0 0.0
2018-Feb-02 02:51N 48°31' W 122°39'0 0.0
2018-Feb-02 02:28N 48°31' W 122°39'0 0.0
2018-Feb-01 23:48N 48°31' W 122°39'0 0.0
2018-Feb-01 23:24N 48°31' W 122°39'  
Track history (hours):
 
Tides and Currents Weather Stations Pressure Air Temp Water Temp Dewpoint Dewpoint Depression Visibility Wind Speed Wind Dir Waves Ship Positions

Marina

Owner: Brown, Michael R, Langley, WA. More information available from US FCC via Universal Licensing System and Coast Guard Vessel Documentation Center.

Last reported at 2018-Feb-11 23:22 UTC. Time now 2018-May-22 19:52 UTC.
Position N 32°40' W 117°19'.
Warning: this ship's position is months out of date.

Length 30 m; draft 2.7 m.

Type: Fishing. MMSI: 367466760.

Date/timePositionNaut miles runAvg speedWind from/ knotsBaromVisibWave heightAir tempDewpointWater temp
2018-Feb-11 23:22N 32°40' W 117°19'2 4.1
2018-Feb-11 22:49N 32°42' W 117°18'0 1.4
2018-Feb-11 22:29N 32°43' W 117°18'3 5.4
2018-Feb-11 22:00N 32°45' W 117°19'3 5.9
2018-Feb-11 21:30N 32°46' W 117°23'4 8.2
2018-Feb-11 21:00N 32°48' W 117°27'4 8.5
2018-Feb-11 20:30N 32°49' W 117°32'4 8.6
2018-Feb-11 20:00N 32°51' W 117°37'4 8.9
2018-Feb-11 19:30N 32°52' W 117°42'61 7.9
2018-Feb-11 11:50N 33°26' W 118°42'4 8.0
2018-Feb-11 11:22N 33°29' W 118°44'3 7.9
2018-Feb-11 11:00N 33°32' W 118°47'4 8.0
2018-Feb-11 10:30N 33°35' W 118°50'4 8.1
2018-Feb-11 10:00N 33°38' W 118°53'4 8.3
2018-Feb-11 09:30N 33°41' W 118°56'4 8.2
2018-Feb-11 09:00N 33°44' W 118°59'4 8.1
2018-Feb-11 08:30N 33°47' W 119°02'4 8.3
2018-Feb-11 08:00N 33°50' W 119°06'4 8.4
2018-Feb-11 07:29N 33°54' W 119°09'4 8.3
2018-Feb-11 07:00N 33°57' W 119°12'4 8.0
2018-Feb-11 06:28N 33°60' W 119°15'4 7.5
2018-Feb-11 05:57N 34°03' W 119°19'3 7.9
2018-Feb-11 05:30N 34°04' W 119°23'5 7.8
2018-Feb-11 04:55N 34°06' W 119°28'3 8.1
2018-Feb-11 04:29N 34°08' W 119°31'4 8.1
2018-Feb-11 03:59N 34°10' W 119°35'5 8.2
2018-Feb-11 03:20N 34°12' W 119°42'3 7.9
2018-Feb-11 03:00N 34°12' W 119°45'4 7.8
2018-Feb-11 02:30N 34°14' W 119°49'5 7.8
2018-Feb-11 01:56N 34°15' W 119°54'3 8.1
2018-Feb-11 01:30N 34°16' W 119°58'4 8.2
2018-Feb-11 00:58N 34°17' W 120°04'4 8.3
2018-Feb-11 00:25N 34°18' W 120°09'4 8.4
2018-Feb-11 00:00N 34°19' W 120°13'4 8.4
2018-Feb-10 23:29N 34°20' W 120°18'4 8.3
2018-Feb-10 22:59N 34°22' W 120°23'4 8.2
2018-Feb-10 22:30N 34°23' W 120°27'4 8.2
2018-Feb-10 22:00N 34°24' W 120°32'4 8.2
2018-Feb-10 21:30N 34°26' W 120°36'4 8.3
2018-Feb-10 21:00N 34°27' W 120°41'4 7.7
2018-Feb-10 20:30N 34°29' W 120°45'4 7.6
2018-Feb-10 20:00N 34°32' W 120°48'4 7.5
2018-Feb-10 19:30N 34°35' W 120°51'4 7.7
2018-Feb-10 19:00N 34°38' W 120°55'4 7.8
2018-Feb-10 18:30N 34°40' W 120°58'4 8.1
2018-Feb-10 18:00N 34°43' W 121°01'4 8.3
2018-Feb-10 17:30N 34°47' W 121°04'4 8.3
2018-Feb-10 17:00N 34°50' W 121°08'4 8.2
2018-Feb-10 16:30N 34°53' W 121°11'4 8.3
2018-Feb-10 16:00N 34°57' W 121°13'4 8.2
2018-Feb-10 15:30N 35°00' W 121°16'4 8.1
2018-Feb-10 15:00N 35°04' W 121°18'4 8.0
2018-Feb-10 14:30N 35°07' W 121°21'4 8.0
2018-Feb-10 14:00N 35°10' W 121°23'4 8.3
2018-Feb-10 13:30N 35°14' W 121°26'4 8.5
2018-Feb-10 13:00N 35°18' W 121°29'4 8.5
2018-Feb-10 12:30N 35°21' W 121°31'4 8.6
2018-Feb-10 12:00N 35°25' W 121°34'6 8.7
2018-Feb-10 11:19N 35°30' W 121°38'70 8.6
2018-Feb-10 03:07N 36°30' W 122°22'1 8.4
2018-Feb-10 02:59N 36°32' W 122°23'7 8.5
2018-Feb-10 02:07N 36°38' W 122°28'2 8.5
2018-Feb-10 01:53N 36°40' W 122°29'4 8.5
2018-Feb-10 01:25N 36°43' W 122°31'4 8.8
2018-Feb-10 01:00N 36°46' W 122°34'5 8.9
2018-Feb-10 00:26N 36°50' W 122°37'4 8.7
2018-Feb-09 23:58N 36°54' W 122°40'4 8.7
2018-Feb-09 23:30N 36°57' W 122°42'4 8.5
2018-Feb-09 23:01N 37°01' W 122°45'2 8.4
2018-Feb-09 22:46N 37°03' W 122°46'6 8.4
2018-Feb-09 22:00N 37°08' W 122°50'4 8.7
2018-Feb-09 21:30N 37°12' W 122°53'13 8.8
2018-Feb-09 20:01N 37°23' W 123°02'9 8.9
2018-Feb-09 19:01N 37°31' W 123°07'39 8.6
2018-Feb-09 14:31N 38°06' W 123°29'329 8.5
2018-Feb-07 23:59N 43°30' W 124°42'10 8.9
2018-Feb-07 22:52N 43°39' W 124°40'8 8.8
2018-Feb-07 21:56N 43°47' W 124°38'  
2018-Feb-05 06:58N 44°55' W 124°25'27 8.5
2018-Feb-05 03:47N 45°22' W 124°33'2 8.4
2018-Feb-05 03:30N 45°24' W 124°34'4 8.5
2018-Feb-05 03:01N 45°28' W 124°35'4 8.6
2018-Feb-05 02:30N 45°32' W 124°36'4 8.7
2018-Feb-05 02:01N 45°36' W 124°38'4 8.5
2018-Feb-05 01:30N 45°41' W 124°39'4 8.6
2018-Feb-05 01:00N 45°45' W 124°40'4 8.6
2018-Feb-05 00:30N 45°49' W 124°42'4 8.6
2018-Feb-05 00:00N 45°53' W 124°43'4 8.5
2018-Feb-04 23:30N 45°57' W 124°44'4 8.5
2018-Feb-04 23:00N 46°02' W 124°45'4 8.2
2018-Feb-04 22:30N 46°06' W 124°47'10 8.0
2018-Feb-04 21:15N 46°15' W 124°50'2 7.8
2018-Feb-04 21:01N 46°17' W 124°50'8 7.8
2018-Feb-04 19:56N 46°25' W 124°53'3 7.8
2018-Feb-04 19:31N 46°29' W 124°54'4 7.7
2018-Feb-04 19:00N 46°33' W 124°55'4 7.7
2018-Feb-04 18:31N 46°36' W 124°56'4 7.7
2018-Feb-04 18:00N 46°40' W 124°57'4 7.6
2018-Feb-04 17:30N 46°44' W 124°59'92 7.7
2018-Feb-04 05:30N 48°16' W 124°58'4 6.8
2018-Feb-04 04:53N 48°19' W 124°55'3 6.4
2018-Feb-04 04:21N 48°23' W 124°53'3 7.1
2018-Feb-04 04:00N 48°24' W 124°51'4 7.5
2018-Feb-04 03:30N 48°26' W 124°46'4 7.6
2018-Feb-04 03:00N 48°25' W 124°40'4 7.7
2018-Feb-04 02:30N 48°24' W 124°34'4 8.1
2018-Feb-04 01:59N 48°22' W 124°29'4 8.0
2018-Feb-04 01:30N 48°20' W 124°24'4 7.9
2018-Feb-04 01:00N 48°18' W 124°19'4 7.9
2018-Feb-04 00:30N 48°17' W 124°13'4 7.8
2018-Feb-03 23:59N 48°15' W 124°08'6 7.4
2018-Feb-03 23:13N 48°13' W 123°60'40 8.5
2018-Feb-03 18:28N 48°20' W 122°60'4 8.9
2018-Feb-03 18:00N 48°22' W 122°54'5 9.4
2018-Feb-03 17:31N 48°24' W 122°48'5 9.5
2018-Feb-03 17:01N 48°29' W 122°45'5 3.8
2018-Feb-03 15:49N 48°31' W 122°39'0 0.1
2018-Feb-03 15:23N 48°31' W 122°39'0 0.0
2018-Feb-03 14:59N 48°31' W 122°39'0 0.0
2018-Feb-03 14:28N 48°31' W 122°39'0 0.0
2018-Feb-03 13:49N 48°31' W 122°39'0 0.0
2018-Feb-03 13:08N 48°31' W 122°39'0 0.0
2018-Feb-03 13:00N 48°31' W 122°39'0 0.0
2018-Feb-03 11:08N 48°31' W 122°39'0 0.0
2018-Feb-03 10:58N 48°31' W 122°39'0 0.0
2018-Feb-03 10:28N 48°31' W 122°39'0 0.0
2018-Feb-03 10:00N 48°31' W 122°39'0 0.0
2018-Feb-03 06:27N 48°31' W 122°39'0 0.0
2018-Feb-03 05:22N 48°31' W 122°39'0 0.0
2018-Feb-03 04:50N 48°31' W 122°39'0 0.0
2018-Feb-03 03:58N 48°31' W 122°39'0 0.0
2018-Feb-03 03:25N 48°31' W 122°39'0 0.0
2018-Feb-03 01:58N 48°31' W 122°39'0 0.0
2018-Feb-03 01:30N 48°31' W 122°39'0 0.0
2018-Feb-03 01:00N 48°31' W 122°39'0 0.0
2018-Feb-03 00:20N 48°31' W 122°39'0 0.0
2018-Feb-02 23:55N 48°31' W 122°39'0 0.0
2018-Feb-02 23:23N 48°31' W 122°39'0 0.0
2018-Feb-02 22:59N 48°31' W 122°39'0 0.0
2018-Feb-02 22:28N 48°31' W 122°39'0 0.0
2018-Feb-02 21:58N 48°31' W 122°39'0 0.0
2018-Feb-02 21:30N 48°31' W 122°39'0 0.0
2018-Feb-02 20:59N 48°31' W 122°39'0 0.0
2018-Feb-02 20:28N 48°31' W 122°39'0 0.0
2018-Feb-02 18:34N 48°31' W 122°39'0 0.0
2018-Feb-02 18:29N 48°31' W 122°39'0 0.0
2018-Feb-02 17:47N 48°31' W 122°39'0 0.0
2018-Feb-02 17:22N 48°31' W 122°39'0 0.0
2018-Feb-02 16:43N 48°31' W 122°39'0 0.0
2018-Feb-02 16:21N 48°31' W 122°39'0 0.0
2018-Feb-02 12:40N 48°31' W 122°39'0 0.0
2018-Feb-02 11:50N 48°31' W 122°39'0 0.0
2018-Feb-02 11:24N 48°31' W 122°39'0 0.0
2018-Feb-02 10:59N 48°31' W 122°39'0 0.0
2018-Feb-02 10:30N 48°31' W 122°39'0 0.0
2018-Feb-02 09:54N 48°31' W 122°39'0 0.0
2018-Feb-02 09:30N 48°31' W 122°39'0 0.0
2018-Feb-02 08:58N 48°31' W 122°39'0 0.0
2018-Feb-02 07:41N 48°31' W 122°39'0 0.0
2018-Feb-02 07:15N 48°31' W 122°39'0 0.0
2018-Feb-02 06:59N 48°31' W 122°39'0 0.0
2018-Feb-02 06:30N 48°31' W 122°39'0 0.0
2018-Feb-02 05:55N 48°31' W 122°39'0 0.0
2018-Feb-02 05:14N 48°31' W 122°39'0 0.0
2018-Feb-02 04:53N 48°31' W 122°39'0 0.0
2018-Feb-02 04:20N 48°31' W 122°39'0 0.0
2018-Feb-02 03:48N 48°31' W 122°39'0 0.0
2018-Feb-02 02:51N 48°31' W 122°39'0 0.0
2018-Feb-02 02:28N 48°31' W 122°39'0 0.0
2018-Feb-01 23:48N 48°31' W 122°39'0 0.0
2018-Feb-01 23:24N 48°31' W 122°39'  

Dump ship's entire track history